sensor_id;sensor_type;location;lat;lon;timestamp;temperature;humidity
9666;DHT22;4871;52.004;5.924;2023-02-18T00:00:07;10.3;86.8
9666;DHT22;4871;52.004;5.924;2023-02-18T00:01:00;10.3;86.7
9666;DHT22;4871;52.004;5.924;2023-02-18T00:02:03;10.3;86.8
9666;DHT22;4871;52.004;5.924;2023-02-18T00:03:00;10.3;87.0
9666;DHT22;4871;52.004;5.924;2023-02-18T00:04:03;10.3;87.0
9666;DHT22;4871;52.004;5.924;2023-02-18T00:05:00;10.3;87.0
9666;DHT22;4871;52.004;5.924;2023-02-18T00:06:09;10.3;87.0
9666;DHT22;4871;52.004;5.924;2023-02-18T00:07:00;10.3;86.9
9666;DHT22;4871;52.004;5.924;2023-02-18T00:08:02;10.3;86.9
9666;DHT22;4871;52.004;5.924;2023-02-18T00:09:03;10.3;86.8
9666;DHT22;4871;52.004;5.924;2023-02-18T00:10:03;10.3;86.9
9666;DHT22;4871;52.004;5.924;2023-02-18T00:11:00;10.3;87.0
9666;DHT22;4871;52.004;5.924;2023-02-18T00:12:02;10.3;87.1
9666;DHT22;4871;52.004;5.924;2023-02-18T00:13:00;10.3;86.6
9666;DHT22;4871;52.004;5.924;2023-02-18T00:14:10;10.3;86.7
9666;DHT22;4871;52.004;5.924;2023-02-18T00:15:00;10.3;86.5
9666;DHT22;4871;52.004;5.924;2023-02-18T00:16:02;10.4;86.6
9666;DHT22;4871;52.004;5.924;2023-02-18T00:17:00;10.4;86.5
9666;DHT22;4871;52.004;5.924;2023-02-18T00:18:03;10.3;86.6
9666;DHT22;4871;52.004;5.924;2023-02-18T00:19:02;10.3;86.8
9666;DHT22;4871;52.004;5.924;2023-02-18T00:20:04;10.3;86.9
9666;DHT22;4871;52.004;5.924;2023-02-18T00:21:02;10.3;86.8
9666;DHT22;4871;52.004;5.924;2023-02-18T00:22:03;10.3;86.6
9666;DHT22;4871;52.004;5.924;2023-02-18T00:23:00;10.3;86.5
9666;DHT22;4871;52.004;5.924;2023-02-18T00:24:04;10.3;86.8
9666;DHT22;4871;52.004;5.924;2023-02-18T00:25:00;10.3;86.9
9666;DHT22;4871;52.004;5.924;2023-02-18T00:26:05;10.3;86.8
9666;DHT22;4871;52.004;5.924;2023-02-18T00:27:00;10.3;86.8
9666;DHT22;4871;52.004;5.924;2023-02-18T00:28:01;10.3;86.6
9666;DHT22;4871;52.004;5.924;2023-02-18T00:29:00;10.3;86.9
9666;DHT22;4871;52.004;5.924;2023-02-18T00:30:03;10.3;87.0
9666;DHT22;4871;52.004;5.924;2023-02-18T00:31:05;10.3;86.8
9666;DHT22;4871;52.004;5.924;2023-02-18T00:32:02;10.3;86.9
9666;DHT22;4871;52.004;5.924;2023-02-18T00:33:00;10.3;87.2
9666;DHT22;4871;52.004;5.924;2023-02-18T00:34:05;10.3;87.1
9666;DHT22;4871;52.004;5.924;2023-02-18T00:35:00;10.3;87.0
9666;DHT22;4871;52.004;5.924;2023-02-18T00:36:04;10.3;87.0
9666;DHT22;4871;52.004;5.924;2023-02-18T00:37:00;10.3;87.0
9666;DHT22;4871;52.004;5.924;2023-02-18T00:38:02;10.3;87.1
9666;DHT22;4871;52.004;5.924;2023-02-18T00:39:02;10.3;86.8
9666;DHT22;4871;52.004;5.924;2023-02-18T00:40:01;10.3;86.8
9666;DHT22;4871;52.004;5.924;2023-02-18T00:41:00;10.3;87.1
9666;DHT22;4871;52.004;5.924;2023-02-18T00:42:02;10.3;87.3
9666;DHT22;4871;52.004;5.924;2023-02-18T00:43:00;10.3;87.2
9666;DHT22;4871;52.004;5.924;2023-02-18T00:44:03;10.3;87.2
9666;DHT22;4871;52.004;5.924;2023-02-18T00:45:00;10.2;87.2
9666;DHT22;4871;52.004;5.924;2023-02-18T00:46:04;10.2;87.4
9666;DHT22;4871;52.004;5.924;2023-02-18T00:47:00;10.3;87.1
9666;DHT22;4871;52.004;5.924;2023-02-18T00:48:02;10.2;87.0
9666;DHT22;4871;52.004;5.924;2023-02-18T00:49:00;10.2;87.3
9666;DHT22;4871;52.004;5.924;2023-02-18T00:50:03;10.2;87.2
9666;DHT22;4871;52.004;5.924;2023-02-18T00:51:01;10.2;87.2
9666;DHT22;4871;52.004;5.924;2023-02-18T00:52:01;10.2;87.2
9666;DHT22;4871;52.004;5.924;2023-02-18T00:53:00;10.2;87.4
9666;DHT22;4871;52.004;5.924;2023-02-18T00:54:05;10.2;87.3
9666;DHT22;4871;52.004;5.924;2023-02-18T00:55:00;10.2;87.1
9666;DHT22;4871;52.004;5.924;2023-02-18T00:56:04;10.2;87.2
9666;DHT22;4871;52.004;5.924;2023-02-18T00:57:00;10.2;87.2
9666;DHT22;4871;52.004;5.924;2023-02-18T00:58:03;10.2;87.2
9666;DHT22;4871;52.004;5.924;2023-02-18T00:59:00;10.2;87.1
9666;DHT22;4871;52.004;5.924;2023-02-18T01:00:02;10.2;86.9
9666;DHT22;4871;52.004;5.924;2023-02-18T01:01:00;10.3;86.7
9666;DHT22;4871;52.004;5.924;2023-02-18T01:02:02;10.2;86.9
9666;DHT22;4871;52.004;5.924;2023-02-18T01:03:00;10.2;87.1
9666;DHT22;4871;52.004;5.924;2023-02-18T01:04:03;10.3;86.6
9666;DHT22;4871;52.004;5.924;2023-02-18T01:05:00;10.3;86.8
9666;DHT22;4871;52.004;5.924;2023-02-18T01:06:02;10.2;86.9
9666;DHT22;4871;52.004;5.924;2023-02-18T01:07:00;10.3;86.8
9666;DHT22;4871;52.004;5.924;2023-02-18T01:08:02;10.2;87.0
9666;DHT22;4871;52.004;5.924;2023-02-18T01:09:00;10.2;86.7
9666;DHT22;4871;52.004;5.924;2023-02-18T01:10:00;10.3;86.7
9666;DHT22;4871;52.004;5.924;2023-02-18T01:11:01;10.2;87.0
9666;DHT22;4871;52.004;5.924;2023-02-18T01:12:02;10.2;87.1
9666;DHT22;4871;52.004;5.924;2023-02-18T01:13:00;10.2;87.1
9666;DHT22;4871;52.004;5.924;2023-02-18T01:14:02;10.2;86.9
9666;DHT22;4871;52.004;5.924;2023-02-18T01:15:00;10.2;87.0
9666;DHT22;4871;52.004;5.924;2023-02-18T01:16:04;10.2;87.2
9666;DHT22;4871;52.004;5.924;2023-02-18T01:17:00;10.2;87.1
9666;DHT22;4871;52.004;5.924;2023-02-18T01:18:01;10.2;87.0
9666;DHT22;4871;52.004;5.924;2023-02-18T01:19:00;10.2;86.6
9666;DHT22;4871;52.004;5.924;2023-02-18T01:20:00;10.2;87.1
9666;DHT22;4871;52.004;5.924;2023-02-18T01:21:00;10.2;87.1
9666;DHT22;4871;52.004;5.924;2023-02-18T01:22:02;10.2;87.2
9666;DHT22;4871;52.004;5.924;2023-02-18T01:23:00;10.2;87.0
9666;DHT22;4871;52.004;5.924;2023-02-18T01:24:02;10.2;86.8
9666;DHT22;4871;52.004;5.924;2023-02-18T01:25:00;10.1;87.5
9666;DHT22;4871;52.004;5.924;2023-02-18T01:26:02;10.2;87.3
9666;DHT22;4871;52.004;5.924;2023-02-18T01:27:00;10.2;87.4
9666;DHT22;4871;52.004;5.924;2023-02-18T01:28:04;10.2;87.3
9666;DHT22;4871;52.004;5.924;2023-02-18T01:29:00;10.2;87.4
9666;DHT22;4871;52.004;5.924;2023-02-18T01:30:03;10.2;87.4
9666;DHT22;4871;52.004;5.924;2023-02-18T01:31:04;10.2;87.3
9666;DHT22;4871;52.004;5.924;2023-02-18T01:32:02;10.2;86.9
9666;DHT22;4871;52.004;5.924;2023-02-18T01:33:00;10.2;87.0
9666;DHT22;4871;52.004;5.924;2023-02-18T01:34:03;10.2;87.1
9666;DHT22;4871;52.004;5.924;2023-02-18T01:35:01;10.1;87.5
9666;DHT22;4871;52.004;5.924;2023-02-18T01:36:02;10.2;87.3
9666;DHT22;4871;52.004;5.924;2023-02-18T01:37:00;10.2;87.2
9666;DHT22;4871;52.004;5.924;2023-02-18T01:38:02;10.2;87.2
9666;DHT22;4871;52.004;5.924;2023-02-18T01:39:00;10.2;87.5
9666;DHT22;4871;52.004;5.924;2023-02-18T01:40:02;10.2;87.2
9666;DHT22;4871;52.004;5.924;2023-02-18T01:41:00;10.2;87.2
9666;DHT22;4871;52.004;5.924;2023-02-18T01:42:00;10.2;87.2
9666;DHT22;4871;52.004;5.924;2023-02-18T01:43:01;10.2;87.6
9666;DHT22;4871;52.004;5.924;2023-02-18T01:44:12;10.1;87.6
9666;DHT22;4871;52.004;5.924;2023-02-18T01:46:10;10.1;87.3
9666;DHT22;4871;52.004;5.924;2023-02-18T01:47:00;10.2;87.2
9666;DHT22;4871;52.004;5.924;2023-02-18T01:48:06;10.1;87.1
9666;DHT22;4871;52.004;5.924;2023-02-18T01:49:00;10.2;87.3
9666;DHT22;4871;52.004;5.924;2023-02-18T01:50:04;10.2;87.1
9666;DHT22;4871;52.004;5.924;2023-02-18T01:51:04;10.2;87.4
9666;DHT22;4871;52.004;5.924;2023-02-18T01:52:04;10.2;87.0
9666;DHT22;4871;52.004;5.924;2023-02-18T01:53:01;10.2;87.3
9666;DHT22;4871;52.004;5.924;2023-02-18T01:54:05;10.1;87.3
9666;DHT22;4871;52.004;5.924;2023-02-18T01:55:00;10.1;87.3
9666;DHT22;4871;52.004;5.924;2023-02-18T01:56:05;10.2;87.3
9666;DHT22;4871;52.004;5.924;2023-02-18T01:57:03;10.2;87.0
9666;DHT22;4871;52.004;5.924;2023-02-18T01:58:03;10.2;87.3
9666;DHT22;4871;52.004;5.924;2023-02-18T01:59:03;10.2;87.1
9666;DHT22;4871;52.004;5.924;2023-02-18T02:00:05;10.2;87.2
9666;DHT22;4871;52.004;5.924;2023-02-18T02:01:00;10.2;87.3
9666;DHT22;4871;52.004;5.924;2023-02-18T02:02:06;10.2;87.2
9666;DHT22;4871;52.004;5.924;2023-02-18T02:03:00;10.2;87.3
9666;DHT22;4871;52.004;5.924;2023-02-18T02:04:02;10.2;87.4
9666;DHT22;4871;52.004;5.924;2023-02-18T02:05:00;10.2;87.2
9666;DHT22;4871;52.004;5.924;2023-02-18T02:06:01;10.2;87.1
9666;DHT22;4871;52.004;5.924;2023-02-18T02:07:00;10.2;87.7
9666;DHT22;4871;52.004;5.924;2023-02-18T02:08:03;10.2;87.2
9666;DHT22;4871;52.004;5.924;2023-02-18T02:09:03;10.2;87.1
9666;DHT22;4871;52.004;5.924;2023-02-18T02:10:02;10.2;87.4
9666;DHT22;4871;52.004;5.924;2023-02-18T02:11:12;10.2;87.1
9666;DHT22;4871;52.004;5.924;2023-02-18T02:12:17;10.2;87.1
9666;DHT22;4871;52.004;5.924;2023-02-18T02:13:04;10.2;87.2
9666;DHT22;4871;52.004;5.924;2023-02-18T02:14:13;10.2;87.1
9666;DHT22;4871;52.004;5.924;2023-02-18T02:15:14;10.2;87.0
9666;DHT22;4871;52.004;5.924;2023-02-18T02:16:07;10.2;86.9
9666;DHT22;4871;52.004;5.924;2023-02-18T02:17:03;10.2;86.7
9666;DHT22;4871;52.004;5.924;2023-02-18T02:18:16;10.2;86.7
9666;DHT22;4871;52.004;5.924;2023-02-18T02:19:13;10.2;87.0
9666;DHT22;4871;52.004;5.924;2023-02-18T02:21:16;10.2;87.2
9666;DHT22;4871;52.004;5.924;2023-02-18T02:22:16;10.2;87.0
9666;DHT22;4871;52.004;5.924;2023-02-18T02:23:16;10.2;87.0
9666;DHT22;4871;52.004;5.924;2023-02-18T02:24:11;10.2;87.0
9666;DHT22;4871;52.004;5.924;2023-02-18T02:25:06;10.2;87.3
9666;DHT22;4871;52.004;5.924;2023-02-18T02:26:22;10.2;87.3
9666;DHT22;4871;52.004;5.924;2023-02-18T02:27:11;10.2;87.1
9666;DHT22;4871;52.004;5.924;2023-02-18T02:29:16;10.2;87.1
9666;DHT22;4871;52.004;5.924;2023-02-18T02:31:15;10.2;87.0
9666;DHT22;4871;52.004;5.924;2023-02-18T02:32:17;10.2;86.9
9666;DHT22;4871;52.004;5.924;2023-02-18T02:33:09;10.2;87.3
9666;DHT22;4871;52.004;5.924;2023-02-18T02:34:28;10.2;87.2
9666;DHT22;4871;52.004;5.924;2023-02-18T02:35:01;10.2;87.4
9666;DHT22;4871;52.004;5.924;2023-02-18T02:36:03;10.2;87.4
9666;DHT22;4871;52.004;5.924;2023-02-18T02:37:05;10.2;87.2
9666;DHT22;4871;52.004;5.924;2023-02-18T02:38:05;10.2;87.1
9666;DHT22;4871;52.004;5.924;2023-02-18T02:39:07;10.2;87.1
9666;DHT22;4871;52.004;5.924;2023-02-18T02:40:12;10.2;87.1
9666;DHT22;4871;52.004;5.924;2023-02-18T02:41:07;10.2;87.1
9666;DHT22;4871;52.004;5.924;2023-02-18T02:42:07;10.2;86.8
9666;DHT22;4871;52.004;5.924;2023-02-18T02:43:05;10.2;87.3
9666;DHT22;4871;52.004;5.924;2023-02-18T02:44:10;10.2;87.0
9666;DHT22;4871;52.004;5.924;2023-02-18T02:45:03;10.2;87.0
9666;DHT22;4871;52.004;5.924;2023-02-18T02:46:08;10.2;87.0
9666;DHT22;4871;52.004;5.924;2023-02-18T02:47:07;10.2;87.0
9666;DHT22;4871;52.004;5.924;2023-02-18T02:48:09;10.2;87.1
9666;DHT22;4871;52.004;5.924;2023-02-18T02:49:07;10.2;87.0
9666;DHT22;4871;52.004;5.924;2023-02-18T02:50:05;10.2;87.5
9666;DHT22;4871;52.004;5.924;2023-02-18T02:51:05;10.2;87.2
9666;DHT22;4871;52.004;5.924;2023-02-18T02:52:04;10.2;87.7
9666;DHT22;4871;52.004;5.924;2023-02-18T02:53:03;10.2;87.1
9666;DHT22;4871;52.004;5.924;2023-02-18T02:54:15;10.2;87.3
9666;DHT22;4871;52.004;5.924;2023-02-18T02:55:02;10.2;87.1
9666;DHT22;4871;52.004;5.924;2023-02-18T02:56:01;10.2;87.3
9666;DHT22;4871;52.004;5.924;2023-02-18T02:57:07;10.2;87.2
9666;DHT22;4871;52.004;5.924;2023-02-18T02:58:04;10.2;87.7
9666;DHT22;4871;52.004;5.924;2023-02-18T02:59:03;10.2;87.4
9666;DHT22;4871;52.004;5.924;2023-02-18T03:00:05;10.2;87.0
9666;DHT22;4871;52.004;5.924;2023-02-18T03:01:14;10.2;87.0
9666;DHT22;4871;52.004;5.924;2023-02-18T03:02:29;10.2;87.6
9666;DHT22;4871;52.004;5.924;2023-02-18T03:03:16;10.2;87.3
9666;DHT22;4871;52.004;5.924;2023-02-18T03:04:15;10.2;87.4
9666;DHT22;4871;52.004;5.924;2023-02-18T03:05:09;10.2;87.3
9666;DHT22;4871;52.004;5.924;2023-02-18T03:06:14;10.2;87.7
9666;DHT22;4871;52.004;5.924;2023-02-18T03:07:11;10.2;87.7
9666;DHT22;4871;52.004;5.924;2023-02-18T03:08:07;10.2;87.5
9666;DHT22;4871;52.004;5.924;2023-02-18T03:09:06;10.2;87.3
9666;DHT22;4871;52.004;5.924;2023-02-18T03:10:13;10.2;87.4
9666;DHT22;4871;52.004;5.924;2023-02-18T03:11:04;10.2;87.7
9666;DHT22;4871;52.004;5.924;2023-02-18T03:12:06;10.2;87.8
9666;DHT22;4871;52.004;5.924;2023-02-18T03:13:06;10.2;87.6
9666;DHT22;4871;52.004;5.924;2023-02-18T03:14:09;10.2;87.4
9666;DHT22;4871;52.004;5.924;2023-02-18T03:15:04;10.2;87.8
9666;DHT22;4871;52.004;5.924;2023-02-18T03:16:09;10.2;87.9
9666;DHT22;4871;52.004;5.924;2023-02-18T03:17:02;10.3;87.0
9666;DHT22;4871;52.004;5.924;2023-02-18T03:18:07;10.3;87.4
9666;DHT22;4871;52.004;5.924;2023-02-18T03:19:04;10.3;87.6
9666;DHT22;4871;52.004;5.924;2023-02-18T03:20:07;10.3;87.4
9666;DHT22;4871;52.004;5.924;2023-02-18T03:21:03;10.3;87.4
9666;DHT22;4871;52.004;5.924;2023-02-18T03:22:05;10.2;87.5
9666;DHT22;4871;52.004;5.924;2023-02-18T03:23:03;10.3;87.8
9666;DHT22;4871;52.004;5.924;2023-02-18T03:24:05;10.3;87.5
9666;DHT22;4871;52.004;5.924;2023-02-18T03:25:00;10.3;87.3
9666;DHT22;4871;52.004;5.924;2023-02-18T03:26:05;10.3;87.6
9666;DHT22;4871;52.004;5.924;2023-02-18T03:27:04;10.3;87.3
9666;DHT22;4871;52.004;5.924;2023-02-18T03:28:06;10.2;87.9
9666;DHT22;4871;52.004;5.924;2023-02-18T03:29:02;10.3;88.2
9666;DHT22;4871;52.004;5.924;2023-02-18T03:30:06;10.3;87.6
9666;DHT22;4871;52.004;5.924;2023-02-18T03:31:03;10.3;88.2
9666;DHT22;4871;52.004;5.924;2023-02-18T03:32:04;10.3;87.8
9666;DHT22;4871;52.004;5.924;2023-02-18T03:33:03;10.3;88.3
9666;DHT22;4871;52.004;5.924;2023-02-18T03:34:05;10.3;88.2
9666;DHT22;4871;52.004;5.924;2023-02-18T03:35:02;10.3;88.0
9666;DHT22;4871;52.004;5.924;2023-02-18T03:36:03;10.3;87.9
9666;DHT22;4871;52.004;5.924;2023-02-18T03:37:01;10.3;88.4
9666;DHT22;4871;52.004;5.924;2023-02-18T03:38:07;10.3;88.2
9666;DHT22;4871;52.004;5.924;2023-02-18T03:39:03;10.3;88.0
9666;DHT22;4871;52.004;5.924;2023-02-18T03:40:05;10.4;87.6
9666;DHT22;4871;52.004;5.924;2023-02-18T03:41:00;10.3;87.9
9666;DHT22;4871;52.004;5.924;2023-02-18T03:42:03;10.3;87.8
9666;DHT22;4871;52.004;5.924;2023-02-18T03:43:00;10.3;87.9
9666;DHT22;4871;52.004;5.924;2023-02-18T03:44:06;10.4;87.9
9666;DHT22;4871;52.004;5.924;2023-02-18T03:45:00;10.3;87.9
9666;DHT22;4871;52.004;5.924;2023-02-18T03:46:03;10.3;87.8
9666;DHT22;4871;52.004;5.924;2023-02-18T03:47:00;10.3;88.2
9666;DHT22;4871;52.004;5.924;2023-02-18T03:48:03;10.4;88.2
9666;DHT22;4871;52.004;5.924;2023-02-18T03:49:00;10.4;87.9
9666;DHT22;4871;52.004;5.924;2023-02-18T03:50:03;10.4;88.0
9666;DHT22;4871;52.004;5.924;2023-02-18T03:51:00;10.4;87.5
9666;DHT22;4871;52.004;5.924;2023-02-18T03:52:03;10.4;87.8
9666;DHT22;4871;52.004;5.924;2023-02-18T03:53:00;10.4;87.9
9666;DHT22;4871;52.004;5.924;2023-02-18T03:54:02;10.4;87.9
9666;DHT22;4871;52.004;5.924;2023-02-18T03:55:00;10.4;87.8
9666;DHT22;4871;52.004;5.924;2023-02-18T03:56:02;10.4;87.4
9666;DHT22;4871;52.004;5.924;2023-02-18T03:57:00;10.4;87.6
9666;DHT22;4871;52.004;5.924;2023-02-18T03:58:02;10.4;87.5
9666;DHT22;4871;52.004;5.924;2023-02-18T03:59:00;10.4;87.8
9666;DHT22;4871;52.004;5.924;2023-02-18T04:00:06;10.4;87.9
9666;DHT22;4871;52.004;5.924;2023-02-18T04:01:00;10.5;87.5
9666;DHT22;4871;52.004;5.924;2023-02-18T04:02:01;10.4;87.9
9666;DHT22;4871;52.004;5.924;2023-02-18T04:03:00;10.4;88.2
9666;DHT22;4871;52.004;5.924;2023-02-18T04:04:02;10.4;88.0
9666;DHT22;4871;52.004;5.924;2023-02-18T04:05:00;10.4;88.1
9666;DHT22;4871;52.004;5.924;2023-02-18T04:06:03;10.4;88.2
9666;DHT22;4871;52.004;5.924;2023-02-18T04:07:00;10.4;88.3
9666;DHT22;4871;52.004;5.924;2023-02-18T04:08:04;10.5;88.4
9666;DHT22;4871;52.004;5.924;2023-02-18T04:09:02;10.5;87.8
9666;DHT22;4871;52.004;5.924;2023-02-18T04:10:03;10.4;88.1
9666;DHT22;4871;52.004;5.924;2023-02-18T04:11:00;10.4;87.7
9666;DHT22;4871;52.004;5.924;2023-02-18T04:12:02;10.5;88.6
9666;DHT22;4871;52.004;5.924;2023-02-18T04:13:00;10.5;88.5
9666;DHT22;4871;52.004;5.924;2023-02-18T04:14:03;10.5;87.7
9666;DHT22;4871;52.004;5.924;2023-02-18T04:15:00;10.5;87.9
9666;DHT22;4871;52.004;5.924;2023-02-18T04:16:03;10.5;88.3
9666;DHT22;4871;52.004;5.924;2023-02-18T04:17:00;10.5;87.7
9666;DHT22;4871;52.004;5.924;2023-02-18T04:18:03;10.5;88.0
9666;DHT22;4871;52.004;5.924;2023-02-18T04:19:00;10.5;87.8
9666;DHT22;4871;52.004;5.924;2023-02-18T04:20:04;10.5;88.4
9666;DHT22;4871;52.004;5.924;2023-02-18T04:21:00;10.5;88.3
9666;DHT22;4871;52.004;5.924;2023-02-18T04:22:03;10.5;88.6
9666;DHT22;4871;52.004;5.924;2023-02-18T04:23:00;10.5;88.5
9666;DHT22;4871;52.004;5.924;2023-02-18T04:24:02;10.5;88.2
9666;DHT22;4871;52.004;5.924;2023-02-18T04:25:00;10.5;88.6
9666;DHT22;4871;52.004;5.924;2023-02-18T04:26:02;10.5;88.1
9666;DHT22;4871;52.004;5.924;2023-02-18T04:27:00;10.5;88.2
9666;DHT22;4871;52.004;5.924;2023-02-18T04:28:03;10.5;88.6
9666;DHT22;4871;52.004;5.924;2023-02-18T04:29:00;10.5;87.8
9666;DHT22;4871;52.004;5.924;2023-02-18T04:30:05;10.5;88.4
9666;DHT22;4871;52.004;5.924;2023-02-18T04:31:00;10.5;88.8
9666;DHT22;4871;52.004;5.924;2023-02-18T04:32:02;10.5;88.4
9666;DHT22;4871;52.004;5.924;2023-02-18T04:33:00;10.5;88.6
9666;DHT22;4871;52.004;5.924;2023-02-18T04:34:01;10.5;88.4
9666;DHT22;4871;52.004;5.924;2023-02-18T04:35:00;10.5;88.1
9666;DHT22;4871;52.004;5.924;2023-02-18T04:36:03;10.5;88.3
9666;DHT22;4871;52.004;5.924;2023-02-18T04:37:00;10.5;88.6
9666;DHT22;4871;52.004;5.924;2023-02-18T04:38:03;10.5;88.9
9666;DHT22;4871;52.004;5.924;2023-02-18T04:39:00;10.5;88.4
9666;DHT22;4871;52.004;5.924;2023-02-18T04:40:06;10.6;88.4
9666;DHT22;4871;52.004;5.924;2023-02-18T04:41:00;10.5;88.7
9666;DHT22;4871;52.004;5.924;2023-02-18T04:42:07;10.5;88.4
9666;DHT22;4871;52.004;5.924;2023-02-18T04:43:00;10.6;88.5
9666;DHT22;4871;52.004;5.924;2023-02-18T04:44:02;10.6;88.4
9666;DHT22;4871;52.004;5.924;2023-02-18T04:45:00;10.6;88.4
9666;DHT22;4871;52.004;5.924;2023-02-18T04:46:03;10.6;88.8
9666;DHT22;4871;52.004;5.924;2023-02-18T04:47:00;10.6;88.4
9666;DHT22;4871;52.004;5.924;2023-02-18T04:48:02;10.6;88.4
9666;DHT22;4871;52.004;5.924;2023-02-18T04:49:00;10.6;88.3
9666;DHT22;4871;52.004;5.924;2023-02-18T04:50:02;10.6;88.2
9666;DHT22;4871;52.004;5.924;2023-02-18T04:51:00;10.6;88.1
9666;DHT22;4871;52.004;5.924;2023-02-18T04:52:04;10.6;88.1
9666;DHT22;4871;52.004;5.924;2023-02-18T04:53:00;10.6;88.5
9666;DHT22;4871;52.004;5.924;2023-02-18T04:54:03;10.6;88.3
9666;DHT22;4871;52.004;5.924;2023-02-18T04:55:00;10.5;88.8
9666;DHT22;4871;52.004;5.924;2023-02-18T04:56:02;10.6;88.6
9666;DHT22;4871;52.004;5.924;2023-02-18T04:57:00;10.6;88.2
9666;DHT22;4871;52.004;5.924;2023-02-18T04:58:02;10.6;88.7
9666;DHT22;4871;52.004;5.924;2023-02-18T04:59:00;10.6;88.9
9666;DHT22;4871;52.004;5.924;2023-02-18T05:00:08;10.6;88.5
9666;DHT22;4871;52.004;5.924;2023-02-18T05:01:01;10.6;88.5
9666;DHT22;4871;52.004;5.924;2023-02-18T05:02:03;10.6;88.4
9666;DHT22;4871;52.004;5.924;2023-02-18T05:03:00;10.6;88.4
9666;DHT22;4871;52.004;5.924;2023-02-18T05:04:01;10.6;88.4
9666;DHT22;4871;52.004;5.924;2023-02-18T05:05:00;10.6;88.6
9666;DHT22;4871;52.004;5.924;2023-02-18T05:06:02;10.6;88.8
9666;DHT22;4871;52.004;5.924;2023-02-18T05:07:00;10.6;88.3
9666;DHT22;4871;52.004;5.924;2023-02-18T05:08:03;10.6;89.2
9666;DHT22;4871;52.004;5.924;2023-02-18T05:09:00;10.6;88.2
9666;DHT22;4871;52.004;5.924;2023-02-18T05:10:04;10.6;88.9
9666;DHT22;4871;52.004;5.924;2023-02-18T05:11:04;10.6;88.3
9666;DHT22;4871;52.004;5.924;2023-02-18T05:12:03;10.6;89.3
9666;DHT22;4871;52.004;5.924;2023-02-18T05:13:00;10.6;89.0
9666;DHT22;4871;52.004;5.924;2023-02-18T05:14:03;10.6;89.0
9666;DHT22;4871;52.004;5.924;2023-02-18T05:15:00;10.6;88.9
9666;DHT22;4871;52.004;5.924;2023-02-18T05:16:04;10.6;89.0
9666;DHT22;4871;52.004;5.924;2023-02-18T05:17:00;10.6;88.4
9666;DHT22;4871;52.004;5.924;2023-02-18T05:18:04;10.6;88.5
9666;DHT22;4871;52.004;5.924;2023-02-18T05:19:00;10.6;88.5
9666;DHT22;4871;52.004;5.924;2023-02-18T05:20:03;10.6;89.3
9666;DHT22;4871;52.004;5.924;2023-02-18T05:21:00;10.6;88.8
9666;DHT22;4871;52.004;5.924;2023-02-18T05:22:03;10.6;88.9
9666;DHT22;4871;52.004;5.924;2023-02-18T05:23:00;10.6;89.0
9666;DHT22;4871;52.004;5.924;2023-02-18T05:24:01;10.6;88.5
9666;DHT22;4871;52.004;5.924;2023-02-18T05:25:00;10.7;88.6
9666;DHT22;4871;52.004;5.924;2023-02-18T05:26:04;10.6;88.5
9666;DHT22;4871;52.004;5.924;2023-02-18T05:27:00;10.6;88.7
9666;DHT22;4871;52.004;5.924;2023-02-18T05:28:01;10.6;88.7
9666;DHT22;4871;52.004;5.924;2023-02-18T05:29:00;10.6;88.6
9666;DHT22;4871;52.004;5.924;2023-02-18T05:30:04;10.6;88.8
9666;DHT22;4871;52.004;5.924;2023-02-18T05:31:00;10.7;88.3
9666;DHT22;4871;52.004;5.924;2023-02-18T05:32:04;10.7;88.6
9666;DHT22;4871;52.004;5.924;2023-02-18T05:33:00;10.7;88.8
9666;DHT22;4871;52.004;5.924;2023-02-18T05:34:02;10.7;88.7
9666;DHT22;4871;52.004;5.924;2023-02-18T05:35:00;10.7;87.5
9666;DHT22;4871;52.004;5.924;2023-02-18T05:36:02;10.7;88.4
9666;DHT22;4871;52.004;5.924;2023-02-18T05:37:00;10.7;88.4
9666;DHT22;4871;52.004;5.924;2023-02-18T05:38:02;10.7;88.5
9666;DHT22;4871;52.004;5.924;2023-02-18T05:39:00;10.6;88.9
9666;DHT22;4871;52.004;5.924;2023-02-18T05:40:04;10.6;88.5
9666;DHT22;4871;52.004;5.924;2023-02-18T05:41:00;10.6;88.5
9666;DHT22;4871;52.004;5.924;2023-02-18T05:42:03;10.6;88.7
9666;DHT22;4871;52.004;5.924;2023-02-18T05:43:00;10.7;88.7
9666;DHT22;4871;52.004;5.924;2023-02-18T05:44:13;10.6;89.0
9666;DHT22;4871;52.004;5.924;2023-02-18T05:45:00;10.6;88.9
9666;DHT22;4871;52.004;5.924;2023-02-18T05:46:03;10.6;88.9
9666;DHT22;4871;52.004;5.924;2023-02-18T05:47:02;10.6;89.8
9666;DHT22;4871;52.004;5.924;2023-02-18T05:48:03;10.6;88.8
9666;DHT22;4871;52.004;5.924;2023-02-18T05:49:00;10.7;88.7
9666;DHT22;4871;52.004;5.924;2023-02-18T05:50:06;10.6;88.9
9666;DHT22;4871;52.004;5.924;2023-02-18T05:51:00;10.6;89.0
9666;DHT22;4871;52.004;5.924;2023-02-18T05:52:03;10.6;89.2
9666;DHT22;4871;52.004;5.924;2023-02-18T05:53:00;10.6;88.7
9666;DHT22;4871;52.004;5.924;2023-02-18T05:54:02;10.6;88.8
9666;DHT22;4871;52.004;5.924;2023-02-18T05:55:00;10.6;88.9
9666;DHT22;4871;52.004;5.924;2023-02-18T05:56:02;10.6;88.8
9666;DHT22;4871;52.004;5.924;2023-02-18T05:57:00;10.6;89.2
9666;DHT22;4871;52.004;5.924;2023-02-18T05:58:01;10.7;89.1
9666;DHT22;4871;52.004;5.924;2023-02-18T05:59:00;10.7;88.8
9666;DHT22;4871;52.004;5.924;2023-02-18T06:00:04;10.7;88.8
9666;DHT22;4871;52.004;5.924;2023-02-18T06:01:00;10.6;88.6
9666;DHT22;4871;52.004;5.924;2023-02-18T06:02:02;10.6;89.3
9666;DHT22;4871;52.004;5.924;2023-02-18T06:03:00;10.6;89.4
9666;DHT22;4871;52.004;5.924;2023-02-18T06:04:02;10.6;89.4
9666;DHT22;4871;52.004;5.924;2023-02-18T06:05:00;10.6;89.2
9666;DHT22;4871;52.004;5.924;2023-02-18T06:06:03;10.7;89.2
9666;DHT22;4871;52.004;5.924;2023-02-18T06:07:00;10.6;89.0
9666;DHT22;4871;52.004;5.924;2023-02-18T06:08:03;10.6;89.4
9666;DHT22;4871;52.004;5.924;2023-02-18T06:09:00;10.6;89.5
9666;DHT22;4871;52.004;5.924;2023-02-18T06:10:03;10.6;89.6
9666;DHT22;4871;52.004;5.924;2023-02-18T06:11:00;10.6;89.3
9666;DHT22;4871;52.004;5.924;2023-02-18T06:12:01;10.6;89.4
9666;DHT22;4871;52.004;5.924;2023-02-18T06:13:01;10.6;89.4
9666;DHT22;4871;52.004;5.924;2023-02-18T06:14:04;10.7;88.9
9666;DHT22;4871;52.004;5.924;2023-02-18T06:15:00;10.6;89.0
9666;DHT22;4871;52.004;5.924;2023-02-18T06:16:03;10.7;88.7
9666;DHT22;4871;52.004;5.924;2023-02-18T06:17:00;10.7;88.7
9666;DHT22;4871;52.004;5.924;2023-02-18T06:18:02;10.7;88.7
9666;DHT22;4871;52.004;5.924;2023-02-18T06:19:00;10.7;88.6
9666;DHT22;4871;52.004;5.924;2023-02-18T06:20:04;10.7;88.6
9666;DHT22;4871;52.004;5.924;2023-02-18T06:21:00;10.7;88.8
9666;DHT22;4871;52.004;5.924;2023-02-18T06:22:03;10.7;89.1
9666;DHT22;4871;52.004;5.924;2023-02-18T06:23:00;10.6;89.4
9666;DHT22;4871;52.004;5.924;2023-02-18T06:24:03;10.6;89.1
9666;DHT22;4871;52.004;5.924;2023-02-18T06:25:00;10.6;89.2
9666;DHT22;4871;52.004;5.924;2023-02-18T06:26:02;10.6;88.9
9666;DHT22;4871;52.004;5.924;2023-02-18T06:27:00;10.6;89.5
9666;DHT22;4871;52.004;5.924;2023-02-18T06:28:04;10.6;89.1
9666;DHT22;4871;52.004;5.924;2023-02-18T06:29:00;10.6;89.7
9666;DHT22;4871;52.004;5.924;2023-02-18T06:30:03;10.6;89.7
9666;DHT22;4871;52.004;5.924;2023-02-18T06:31:00;10.6;89.4
9666;DHT22;4871;52.004;5.924;2023-02-18T06:32:02;10.6;89.2
9666;DHT22;4871;52.004;5.924;2023-02-18T06:33:03;10.6;89.4
9666;DHT22;4871;52.004;5.924;2023-02-18T06:34:03;10.6;89.0
9666;DHT22;4871;52.004;5.924;2023-02-18T06:35:00;10.6;89.0
9666;DHT22;4871;52.004;5.924;2023-02-18T06:36:07;10.6;89.6
9666;DHT22;4871;52.004;5.924;2023-02-18T06:37:00;10.6;89.2
9666;DHT22;4871;52.004;5.924;2023-02-18T06:38:02;10.6;89.3
9666;DHT22;4871;52.004;5.924;2023-02-18T06:39:01;10.6;89.1
9666;DHT22;4871;52.004;5.924;2023-02-18T06:40:03;10.6;88.9
9666;DHT22;4871;52.004;5.924;2023-02-18T06:41:00;10.6;89.1
9666;DHT22;4871;52.004;5.924;2023-02-18T06:42:02;10.6;89.2
9666;DHT22;4871;52.004;5.924;2023-02-18T06:43:00;10.6;88.9
9666;DHT22;4871;52.004;5.924;2023-02-18T06:44:03;10.6;88.9
9666;DHT22;4871;52.004;5.924;2023-02-18T06:45:00;10.6;89.2
9666;DHT22;4871;52.004;5.924;2023-02-18T06:46:03;10.6;88.7
9666;DHT22;4871;52.004;5.924;2023-02-18T06:47:00;10.6;89.5
9666;DHT22;4871;52.004;5.924;2023-02-18T06:48:02;10.6;89.1